createdAt,value
2023-05-22T00:01:04.767Z,15.66
2023-05-22T00:03:31.299Z,15.71
2023-05-22T00:05:58.853Z,15.80
2023-05-22T00:08:29.303Z,15.73
2023-05-22T00:10:56.218Z,15.53
2023-05-22T00:13:22.711Z,15.77
2023-05-22T00:15:49.485Z,15.78
2023-05-22T00:18:16.044Z,15.77
2023-05-22T00:20:42.731Z,15.82
2023-05-22T00:23:10.267Z,15.73
2023-05-22T00:25:37.390Z,15.81
2023-05-22T00:28:04.731Z,15.71
2023-05-22T00:30:31.712Z,15.81
2023-05-22T00:32:58.193Z,15.85
2023-05-22T00:35:25.062Z,16.04
2023-05-22T00:37:51.555Z,15.97
2023-05-22T00:40:18.296Z,15.93
2023-05-22T00:42:45.521Z,15.93
2023-05-22T00:45:12.318Z,15.83
2023-05-22T00:47:39.074Z,15.84
2023-05-22T00:50:07.083Z,15.67
2023-05-22T00:52:37.468Z,15.60
2023-05-22T00:55:04.364Z,15.59
2023-05-22T00:57:33.738Z,15.58
2023-05-22T01:00:02.619Z,15.73
2023-05-22T01:02:32.851Z,15.55
2023-05-22T01:04:59.388Z,15.56
2023-05-22T01:07:25.823Z,15.58
2023-05-22T01:09:56.140Z,15.46
2023-05-22T01:12:47.812Z,15.37
2023-05-22T01:15:22.162Z,15.55
2023-05-22T01:17:59.877Z,15.46
2023-05-22T01:20:48.758Z,15.52
2023-05-22T01:23:24.535Z,15.40
2023-05-22T01:26:03.494Z,15.28
2023-05-22T01:28:45.681Z,15.09
2023-05-22T01:31:17.216Z,15.25
2023-05-22T01:33:48.168Z,15.15
2023-05-22T01:36:19.938Z,15.12
2023-05-22T01:38:47.291Z,15.27
2023-05-22T01:41:14.182Z,14.92
2023-05-22T01:43:41.951Z,14.87
2023-05-22T01:46:08.540Z,14.78
2023-05-22T01:48:35.849Z,14.89
2023-05-22T01:51:18.214Z,14.90
2023-05-22T01:54:23.993Z,14.81
2023-05-22T01:57:00.031Z,14.71
2023-05-22T01:59:38.611Z,14.87
2023-05-22T02:02:07.899Z,14.68
2023-05-22T02:04:39.600Z,14.60
2023-05-22T02:07:07.077Z,14.47
2023-05-22T02:09:35.017Z,14.37
2023-05-22T02:12:01.741Z,14.38
2023-05-22T02:14:30.080Z,14.51
2023-05-22T02:16:56.763Z,14.24
2023-05-22T02:19:23.453Z,14.52
2023-05-22T02:21:50.051Z,14.41
2023-05-22T02:24:16.544Z,14.42
2023-05-22T02:26:43.394Z,14.33
2023-05-22T02:29:10.017Z,14.22
2023-05-22T02:31:36.669Z,14.52
2023-05-22T02:34:05.310Z,14.45
2023-05-22T02:36:32.136Z,14.50
2023-05-22T02:39:01.402Z,14.38
2023-05-22T02:41:27.938Z,14.49
2023-05-22T02:43:54.445Z,14.48
2023-05-22T02:46:21.111Z,14.47
2023-05-22T02:48:47.645Z,14.33
2023-05-22T02:51:14.128Z,14.23
2023-05-22T02:53:41.457Z,14.34
2023-05-22T02:56:08.782Z,14.21
2023-05-22T02:58:35.436Z,14.31
2023-05-22T03:01:03.414Z,14.29
2023-05-22T03:03:31.349Z,14.33
2023-05-22T03:05:58.554Z,14.30
2023-05-22T03:08:28.060Z,14.33
2023-05-22T03:10:56.552Z,14.14
2023-05-22T03:13:23.086Z,14.32
2023-05-22T03:15:49.534Z,14.30
2023-05-22T03:18:16.253Z,14.42
2023-05-22T03:20:42.965Z,14.55
2023-05-22T03:23:12.131Z,14.47
2023-05-22T03:25:38.740Z,14.62
2023-05-22T03:28:05.266Z,14.66
2023-05-22T03:30:31.704Z,14.42
2023-05-22T03:32:58.163Z,14.58
2023-05-22T03:35:25.495Z,14.60
2023-05-22T03:37:51.950Z,14.34
2023-05-22T03:40:18.375Z,14.46
2023-05-22T03:42:44.833Z,14.46
2023-05-22T03:45:11.582Z,14.51
2023-05-22T03:47:38.094Z,14.62
2023-05-22T03:50:04.970Z,14.51
2023-05-22T03:52:31.474Z,14.18
2023-05-22T03:54:57.933Z,14.48
2023-05-22T03:57:24.414Z,14.62
2023-05-22T03:59:50.916Z,14.52
2023-05-22T04:02:17.448Z,14.66
2023-05-22T04:04:46.140Z,14.59
2023-05-22T04:07:13.415Z,14.70
2023-05-22T04:09:41.083Z,14.67
2023-05-22T04:12:08.343Z,14.71
2023-05-22T04:14:34.838Z,14.90
2023-05-22T04:17:01.313Z,14.97
2023-05-22T04:19:28.208Z,14.83
2023-05-22T04:21:54.842Z,14.79
2023-05-22T04:24:23.052Z,14.95
2023-05-22T04:26:50.038Z,14.90
2023-05-22T04:29:16.590Z,14.97
2023-05-22T04:31:43.420Z,15.03
2023-05-22T04:34:15.522Z,15.02
2023-05-22T04:36:41.936Z,15.10
2023-05-22T04:39:08.395Z,14.83
2023-05-22T04:41:34.960Z,15.09
2023-05-22T04:44:03.956Z,15.05
2023-05-22T04:46:30.425Z,14.94
2023-05-22T04:49:01.989Z,15.04
2023-05-22T04:51:29.797Z,15.12
2023-05-22T04:53:56.260Z,15.19
2023-05-22T04:56:34.706Z,15.20
2023-05-22T04:59:04.622Z,15.22
2023-05-22T05:01:33.090Z,15.42
2023-05-22T05:04:00.150Z,15.43
2023-05-22T05:06:27.252Z,15.45
2023-05-22T05:08:54.111Z,15.36
2023-05-22T05:11:21.538Z,15.54
2023-05-22T05:13:47.998Z,15.68
2023-05-22T05:16:14.511Z,15.54
2023-05-22T05:18:40.973Z,15.74
2023-05-22T05:21:07.961Z,15.67
2023-05-22T05:23:34.417Z,15.72
2023-05-22T05:26:00.960Z,15.79
2023-05-22T05:28:27.385Z,15.87
2023-05-22T05:30:53.877Z,15.97
2023-05-22T05:33:20.304Z,15.97
2023-05-22T05:35:46.764Z,16.09
2023-05-22T05:38:13.200Z,15.96
2023-05-22T05:40:39.949Z,15.86
2023-05-22T05:43:09.232Z,16.08
2023-05-22T05:45:36.105Z,16.18
2023-05-22T05:48:02.603Z,16.10
2023-05-22T05:50:29.056Z,16.05
2023-05-22T05:52:55.596Z,16.30
2023-05-22T05:55:22.178Z,16.40
2023-05-22T05:57:48.616Z,16.43
2023-05-22T06:00:15.980Z,16.27
2023-05-22T06:02:42.894Z,16.48
2023-05-22T06:05:10.573Z,16.60
2023-05-22T06:07:39.944Z,16.62
2023-05-22T06:10:10.850Z,16.61
2023-05-22T06:12:38.036Z,16.69
2023-05-22T06:15:07.315Z,16.76
2023-05-22T06:17:34.757Z,16.72
2023-05-22T06:20:01.249Z,16.66
2023-05-22T06:22:29.114Z,16.62
2023-05-22T06:24:55.813Z,16.58
2023-05-22T06:27:22.988Z,16.60
2023-05-22T06:29:52.677Z,16.55
2023-05-22T06:32:19.180Z,16.89
2023-05-22T06:34:49.633Z,16.96
2023-05-22T06:37:16.102Z,17.13
2023-05-22T06:39:42.506Z,17.14
2023-05-22T06:42:09.072Z,17.07
2023-05-22T06:44:35.631Z,16.97
2023-05-22T06:47:02.086Z,17.31
2023-05-22T06:49:28.503Z,17.38
2023-05-22T06:51:55.001Z,17.46
2023-05-22T06:54:21.471Z,17.68
2023-05-22T06:56:47.985Z,17.78
2023-05-22T06:59:14.434Z,17.97
2023-05-22T07:01:41.316Z,18.12
2023-05-22T07:04:09.179Z,18.32
2023-05-22T07:06:42.471Z,18.46
2023-05-22T07:09:11.159Z,18.51
2023-05-22T07:11:37.787Z,18.58
2023-05-22T07:14:04.355Z,18.83
2023-05-22T07:16:31.320Z,19.00
2023-05-22T07:18:57.919Z,18.98
2023-05-22T07:21:24.394Z,19.29
2023-05-22T07:23:52.304Z,19.23
2023-05-22T07:26:19.312Z,19.14
2023-05-22T07:28:45.784Z,19.47
2023-05-22T07:31:12.277Z,19.62
2023-05-22T07:33:38.769Z,19.62
2023-05-22T07:36:06.268Z,19.74
2023-05-22T07:38:33.038Z,19.90
2023-05-22T07:40:59.496Z,19.83
2023-05-22T07:43:25.968Z,19.90
2023-05-22T07:45:54.108Z,20.08
2023-05-22T07:48:20.746Z,20.11
2023-05-22T07:50:47.689Z,20.25
2023-05-22T07:53:14.198Z,20.41
2023-05-22T07:55:40.989Z,20.41
2023-05-22T07:58:08.370Z,20.47
2023-05-22T08:00:34.865Z,20.52
2023-05-22T08:03:01.423Z,20.58
2023-05-22T08:05:28.032Z,20.57
2023-05-22T08:07:54.501Z,20.58
2023-05-22T08:10:20.964Z,20.72
2023-05-22T08:12:47.468Z,20.87
2023-05-22T08:15:13.962Z,20.98
2023-05-22T08:17:40.493Z,21.01
2023-05-22T08:20:09.154Z,20.96
2023-05-22T08:22:37.407Z,21.04
2023-05-22T08:25:04.265Z,21.20
2023-05-22T08:27:30.850Z,21.25
2023-05-22T08:29:57.329Z,21.22
2023-05-22T08:32:23.897Z,21.27
2023-05-22T08:34:50.529Z,21.21
2023-05-22T08:37:16.957Z,21.25
2023-05-22T08:39:43.421Z,21.25
2023-05-22T08:42:09.889Z,21.39
2023-05-22T08:44:36.540Z,21.33
2023-05-22T08:47:09.739Z,21.32
2023-05-22T08:49:38.224Z,21.43
2023-05-22T08:52:14.530Z,21.37
2023-05-22T08:54:44.772Z,21.44
2023-05-22T08:57:11.600Z,21.48
2023-05-22T08:59:39.561Z,21.41
2023-05-22T09:02:07.110Z,21.47
2023-05-22T09:04:33.652Z,21.51
2023-05-22T09:07:05.600Z,21.47
2023-05-22T09:09:36.626Z,21.61
2023-05-22T09:12:04.294Z,21.69
2023-05-22T09:14:38.394Z,21.66
2023-05-22T09:17:05.314Z,21.76
2023-05-22T09:19:31.871Z,21.82
2023-05-22T09:22:07.454Z,21.70
2023-05-22T09:24:46.012Z,21.81
2023-05-22T09:27:12.523Z,21.80
2023-05-22T09:29:56.708Z,21.94
2023-05-22T09:32:23.946Z,21.98
2023-05-22T09:34:51.109Z,22.02
2023-05-22T09:37:18.073Z,22.16
2023-05-22T09:39:46.278Z,22.19
2023-05-22T09:42:16.956Z,22.23
2023-05-22T09:44:48.379Z,22.22
2023-05-22T09:47:15.626Z,22.27
2023-05-22T09:49:43.796Z,22.22
2023-05-22T09:52:12.497Z,22.05
2023-05-22T09:54:50.325Z,22.31
2023-05-22T09:57:19.543Z,22.28
2023-05-22T09:59:54.426Z,22.29
2023-05-22T10:02:26.297Z,22.35
2023-05-22T10:04:53.473Z,22.28
2023-05-22T10:07:25.186Z,22.29
2023-05-22T10:09:54.264Z,22.29
2023-05-22T10:12:23.459Z,22.25
2023-05-22T10:14:50.120Z,22.35
2023-05-22T10:17:17.245Z,22.38
2023-05-22T10:19:44.741Z,22.28
2023-05-22T10:22:20.684Z,22.38
2023-05-22T10:24:48.611Z,22.40
2023-05-22T10:27:15.136Z,22.36
2023-05-22T10:29:50.671Z,22.35
2023-05-22T10:32:38.329Z,22.33
2023-05-22T10:35:21.810Z,22.30
2023-05-22T10:38:04.182Z,22.38
2023-05-22T10:40:33.826Z,22.31
2023-05-22T10:43:01.581Z,22.33
2023-05-22T10:45:29.171Z,22.37
2023-05-22T10:48:04.202Z,22.35
2023-05-22T10:50:31.087Z,22.34
2023-05-22T10:53:26.419Z,22.36
2023-05-22T10:55:57.926Z,22.34
2023-05-22T10:58:29.385Z,22.36
2023-05-22T11:01:18.342Z,22.45
2023-05-22T11:03:50.793Z,22.43
2023-05-22T11:06:35.810Z,22.35
2023-05-22T11:09:45.892Z,22.42
2023-05-22T11:12:32.588Z,22.43
2023-05-22T11:14:59.860Z,22.46
2023-05-22T11:17:28.936Z,22.33
2023-05-22T11:20:27.166Z,22.45
2023-05-22T11:23:01.364Z,22.44
2023-05-22T11:25:29.046Z,22.46
2023-05-22T11:27:56.040Z,22.46
2023-05-22T11:30:26.655Z,22.46
2023-05-22T11:32:56.303Z,22.35
2023-05-22T11:35:23.065Z,22.27
2023-05-22T11:37:51.227Z,22.38
2023-05-22T11:40:22.194Z,22.39
2023-05-22T11:42:48.731Z,22.43
2023-05-22T11:45:15.546Z,22.39
2023-05-22T11:47:43.930Z,22.34
2023-05-22T11:50:11.712Z,22.34
2023-05-22T11:52:40.071Z,22.29
2023-05-22T11:55:07.921Z,22.35
2023-05-22T11:57:35.115Z,22.34
2023-05-22T12:00:03.188Z,22.62
2023-05-22T12:02:30.309Z,23.00
2023-05-22T12:04:58.083Z,23.38
2023-05-22T12:07:26.498Z,23.88
2023-05-22T12:09:55.787Z,23.85
2023-05-22T12:12:22.850Z,24.11
2023-05-22T12:14:49.575Z,24.23
2023-05-22T12:17:17.906Z,24.25
2023-05-22T12:19:45.088Z,24.17
2023-05-22T12:22:12.055Z,24.25
2023-05-22T12:24:42.595Z,24.12
2023-05-22T12:27:12.799Z,24.14
2023-05-22T12:29:39.888Z,24.13
2023-05-22T12:32:11.594Z,24.15
2023-05-22T12:34:47.941Z,24.02
2023-05-22T12:37:22.718Z,23.97
2023-05-22T12:39:59.516Z,23.98
2023-05-22T12:42:27.161Z,23.97
2023-05-22T12:44:55.346Z,23.85
2023-05-22T12:47:23.146Z,23.66
2023-05-22T12:49:49.700Z,23.78
2023-05-22T12:52:16.250Z,23.75
2023-05-22T12:54:43.166Z,23.80
2023-05-22T12:57:09.804Z,23.85
2023-05-22T12:59:37.169Z,23.64
2023-05-22T13:02:06.972Z,23.60
2023-05-22T13:04:33.755Z,23.56
2023-05-22T13:07:00.444Z,23.59
2023-05-22T13:09:27.046Z,23.61
2023-05-22T13:11:53.664Z,23.76
2023-05-22T13:14:20.147Z,23.97
2023-05-22T13:16:46.771Z,24.07
2023-05-22T13:19:13.361Z,24.28
2023-05-22T13:21:39.855Z,24.38
2023-05-22T13:24:06.414Z,24.50
2023-05-22T13:26:32.925Z,24.54
2023-05-22T13:28:59.432Z,24.60
2023-05-22T13:31:25.927Z,24.66
2023-05-22T13:33:52.567Z,24.65
2023-05-22T13:36:19.233Z,24.70
2023-05-22T13:38:45.823Z,24.76
2023-05-22T13:41:12.348Z,24.82
2023-05-22T13:43:38.802Z,24.86
2023-05-22T13:46:05.568Z,24.89
2023-05-22T13:48:32.006Z,24.92
2023-05-22T13:50:58.439Z,24.89
2023-05-22T13:53:24.951Z,24.84
2023-05-22T13:55:51.682Z,24.91
2023-05-22T13:58:18.155Z,24.76
2023-05-22T14:00:44.598Z,24.69
2023-05-22T14:03:17.142Z,24.59
2023-05-22T14:05:44.528Z,24.54
2023-05-22T14:08:13.335Z,24.48
2023-05-22T14:10:39.826Z,24.35
2023-05-22T14:13:06.317Z,24.36
2023-05-22T14:15:32.780Z,24.31
2023-05-22T14:17:59.424Z,24.23
2023-05-22T14:20:25.956Z,24.28
2023-05-22T14:22:57.663Z,24.25
2023-05-22T14:25:26.207Z,24.26
2023-05-22T14:27:52.891Z,24.21
2023-05-22T14:30:19.373Z,24.04
2023-05-22T14:32:46.727Z,24.01
2023-05-22T14:35:13.439Z,24.18
2023-05-22T14:37:39.908Z,24.07
2023-05-22T14:40:07.333Z,24.03
2023-05-22T14:42:33.936Z,24.05
2023-05-22T14:45:00.661Z,24.07
2023-05-22T14:47:27.116Z,24.02
2023-05-22T14:49:57.618Z,23.98
2023-05-22T14:52:26.501Z,23.93
2023-05-22T14:54:52.988Z,23.90
2023-05-22T14:57:19.558Z,23.96
2023-05-22T14:59:46.045Z,23.76
2023-05-22T15:02:12.683Z,23.83
2023-05-22T15:04:39.300Z,23.82
2023-05-22T15:07:05.905Z,23.81
2023-05-22T15:09:32.620Z,23.70
2023-05-22T15:11:59.268Z,23.70
2023-05-22T15:14:25.766Z,23.79
2023-05-22T15:16:52.293Z,23.92
2023-05-22T15:19:18.931Z,24.05
2023-05-22T15:21:45.659Z,24.13
2023-05-22T15:24:13.349Z,24.24
2023-05-22T15:26:39.893Z,24.31
2023-05-22T15:29:06.367Z,24.35
2023-05-22T15:31:32.899Z,24.31
2023-05-22T15:33:59.428Z,24.42
2023-05-22T15:36:27.388Z,24.46
2023-05-22T15:38:53.845Z,24.44
2023-05-22T15:41:21.461Z,24.47
2023-05-22T15:43:47.954Z,24.46
2023-05-22T15:46:16.629Z,24.50
2023-05-22T15:48:44.564Z,24.47
2023-05-22T15:51:11.961Z,24.42
2023-05-22T15:53:39.574Z,24.43
2023-05-22T15:56:06.873Z,24.42
2023-05-22T15:58:33.489Z,24.38
2023-05-22T16:00:59.972Z,24.42
2023-05-22T16:03:26.743Z,24.38
2023-05-22T16:05:53.341Z,24.44
2023-05-22T16:08:19.901Z,24.45
2023-05-22T16:10:47.098Z,24.45
2023-05-22T16:13:14.100Z,24.40
2023-05-22T16:15:41.034Z,24.40
2023-05-22T16:18:08.338Z,24.30
2023-05-22T16:20:36.016Z,24.28
2023-05-22T16:23:02.629Z,24.23
2023-05-22T16:25:29.059Z,24.15
2023-05-22T16:27:55.616Z,24.14
2023-05-22T16:30:22.585Z,24.08
2023-05-22T16:32:49.161Z,23.97
2023-05-22T16:35:16.566Z,23.98
2023-05-22T16:37:43.055Z,23.95
2023-05-22T16:40:10.976Z,23.85
2023-05-22T16:42:38.217Z,23.82
2023-05-22T16:45:05.864Z,23.76
2023-05-22T16:47:32.958Z,23.77
2023-05-22T16:49:59.952Z,23.68
2023-05-22T16:52:26.631Z,23.63
2023-05-22T16:54:53.334Z,23.50
2023-05-22T16:57:19.876Z,23.52
2023-05-22T16:59:46.608Z,23.40
2023-05-22T17:02:13.636Z,23.37
2023-05-22T17:04:40.914Z,23.29
2023-05-22T17:07:07.464Z,23.32
2023-05-22T17:09:34.015Z,23.27
2023-05-22T17:12:01.109Z,23.25
2023-05-22T17:14:27.795Z,23.23
2023-05-22T17:16:55.760Z,23.18
2023-05-22T17:19:22.913Z,23.09
2023-05-22T17:21:49.419Z,23.06
2023-05-22T17:24:16.061Z,23.03
2023-05-22T17:26:43.389Z,23.05
2023-05-22T17:29:13.288Z,22.93
2023-05-22T17:31:39.884Z,22.92
2023-05-22T17:34:06.797Z,22.99
2023-05-22T17:36:33.502Z,22.97
2023-05-22T17:39:00.152Z,23.00
2023-05-22T17:41:26.980Z,22.94
2023-05-22T17:43:55.797Z,22.94
2023-05-22T17:46:22.561Z,22.90
2023-05-22T17:48:49.070Z,22.86
2023-05-22T17:51:15.634Z,22.79
2023-05-22T17:53:42.267Z,22.70
2023-05-22T17:56:08.885Z,22.64
2023-05-22T17:58:35.442Z,22.53
2023-05-22T18:01:02.127Z,22.48
2023-05-22T18:03:28.757Z,22.40
2023-05-22T18:05:55.367Z,22.30
2023-05-22T18:08:21.938Z,22.23
2023-05-22T18:10:49.024Z,22.15
2023-05-22T18:13:15.717Z,22.11
2023-05-22T18:15:42.289Z,22.07
2023-05-22T18:18:11.380Z,21.96
2023-05-22T18:20:39.980Z,21.80
2023-05-22T18:23:06.805Z,21.66
2023-05-22T18:25:33.454Z,21.55
2023-05-22T18:28:00.126Z,21.40
2023-05-22T18:30:26.624Z,21.26
2023-05-22T18:32:53.255Z,21.09
2023-05-22T18:35:19.821Z,20.93
2023-05-22T18:37:46.390Z,20.75
2023-05-22T18:40:13.129Z,20.55
2023-05-22T18:42:39.989Z,20.40
2023-05-22T18:45:07.221Z,20.21
2023-05-22T18:47:33.724Z,20.05
2023-05-22T18:50:00.439Z,19.88
2023-05-22T18:52:26.975Z,19.76
2023-05-22T18:54:53.495Z,19.60
2023-05-22T18:57:20.300Z,19.47
2023-05-22T18:59:47.004Z,19.32
2023-05-22T19:02:16.396Z,19.17
2023-05-22T19:04:43.552Z,19.05
2023-05-22T19:07:10.281Z,18.91
2023-05-22T19:09:37.161Z,18.78
2023-05-22T19:12:03.836Z,18.64
2023-05-22T19:14:30.463Z,18.59
2023-05-22T19:17:00.106Z,18.46
2023-05-22T19:19:27.529Z,18.36
2023-05-22T19:21:54.570Z,18.23
2023-05-22T19:24:22.349Z,18.16
2023-05-22T19:26:48.998Z,18.04
2023-05-22T19:29:15.660Z,17.92
2023-05-22T19:31:42.424Z,17.87
2023-05-22T19:34:09.273Z,17.76
2023-05-22T19:36:36.192Z,17.65
2023-05-22T19:39:02.792Z,17.62
2023-05-22T19:41:29.487Z,17.59
2023-05-22T19:43:55.953Z,17.58
2023-05-22T19:46:22.486Z,17.56
2023-05-22T19:48:49.125Z,17.56
2023-05-22T19:51:15.970Z,17.57
2023-05-22T19:53:42.572Z,17.60
2023-05-22T19:56:10.220Z,17.61
2023-05-22T19:58:37.308Z,17.62
2023-05-22T20:01:03.946Z,17.68
2023-05-22T20:03:30.715Z,17.74
2023-05-22T20:05:57.382Z,17.77
2023-05-22T20:08:25.433Z,17.79
2023-05-22T20:10:52.590Z,17.78
2023-05-22T20:13:19.273Z,17.81
2023-05-22T20:15:47.610Z,17.81
2023-05-22T20:18:14.548Z,17.79
2023-05-22T20:20:41.105Z,17.77
2023-05-22T20:23:07.918Z,17.75
2023-05-22T20:25:34.552Z,17.75
2023-05-22T20:28:01.006Z,17.78
2023-05-22T20:30:27.452Z,17.77
2023-05-22T20:32:53.965Z,17.77
2023-05-22T20:35:22.024Z,17.74
2023-05-22T20:37:48.708Z,17.71
2023-05-22T20:40:15.929Z,17.66
2023-05-22T20:42:42.649Z,17.61
2023-05-22T20:45:15.104Z,17.62
2023-05-22T20:47:42.947Z,17.61
2023-05-22T20:50:09.822Z,17.59
2023-05-22T20:52:37.282Z,17.55
2023-05-22T20:55:04.602Z,17.54
2023-05-22T20:57:31.351Z,17.51
2023-05-22T20:59:58.368Z,17.47
2023-05-22T21:02:25.593Z,17.44
2023-05-22T21:04:52.264Z,17.40
2023-05-22T21:07:19.522Z,17.37
2023-05-22T21:09:46.090Z,17.33
2023-05-22T21:12:12.735Z,17.30
2023-05-22T21:14:40.198Z,17.27
2023-05-22T21:17:07.056Z,17.26
2023-05-22T21:19:33.777Z,17.28
2023-05-22T21:22:00.267Z,17.24
2023-05-22T21:24:26.815Z,17.23
2023-05-22T21:26:53.328Z,17.25
2023-05-22T21:29:19.777Z,17.23
2023-05-22T21:31:46.286Z,17.27
2023-05-22T21:34:12.782Z,17.28
2023-05-22T21:36:39.226Z,17.33
2023-05-22T21:39:05.944Z,17.32
2023-05-22T21:41:32.594Z,17.37
2023-05-22T21:43:59.383Z,17.44
2023-05-22T21:46:25.962Z,17.52
2023-05-22T21:48:53.627Z,17.58
2023-05-22T21:51:20.335Z,17.59
2023-05-22T21:53:47.066Z,17.64
2023-05-22T21:56:13.558Z,17.61
2023-05-22T21:58:40.001Z,17.63
2023-05-22T22:01:06.681Z,17.65
2023-05-22T22:03:33.220Z,17.62
2023-05-22T22:05:59.792Z,17.60
2023-05-22T22:08:28.255Z,17.58
2023-05-22T22:10:55.310Z,17.58
2023-05-22T22:13:21.837Z,17.60
2023-05-22T22:15:48.284Z,17.59
2023-05-22T22:18:15.762Z,17.55
2023-05-22T22:20:44.745Z,17.53
2023-05-22T22:23:11.752Z,17.52
2023-05-22T22:25:39.053Z,17.48
2023-05-22T22:28:05.997Z,17.46
2023-05-22T22:30:32.622Z,17.42
2023-05-22T22:32:59.312Z,17.41
2023-05-22T22:35:25.921Z,17.37
2023-05-22T22:37:52.435Z,17.36
2023-05-22T22:40:18.924Z,17.30
2023-05-22T22:42:45.390Z,17.29
2023-05-22T22:45:12.049Z,17.27
2023-05-22T22:47:39.392Z,17.29
2023-05-22T22:50:06.436Z,17.28
2023-05-22T22:52:32.903Z,17.26
2023-05-22T22:54:59.517Z,17.22
2023-05-22T22:57:26.125Z,17.20
2023-05-22T22:59:52.571Z,17.19
2023-05-22T23:02:19.019Z,17.18
2023-05-22T23:04:45.539Z,17.17
2023-05-22T23:07:12.136Z,17.14
2023-05-22T23:09:40.103Z,17.13
2023-05-22T23:12:06.928Z,17.14
2023-05-22T23:14:33.425Z,17.12
2023-05-22T23:16:59.905Z,17.10
2023-05-22T23:19:26.818Z,17.09
2023-05-22T23:21:53.572Z,17.06
2023-05-22T23:24:20.052Z,17.03
2023-05-22T23:26:46.569Z,17.00
2023-05-22T23:29:13.183Z,16.99
2023-05-22T23:31:40.307Z,16.95
2023-05-22T23:34:06.887Z,16.90
2023-05-22T23:36:33.534Z,16.88
2023-05-22T23:39:00.090Z,16.84
2023-05-22T23:41:27.422Z,16.80
2023-05-22T23:43:53.932Z,16.78
2023-05-22T23:46:21.187Z,16.79
2023-05-22T23:48:47.819Z,16.84
2023-05-22T23:51:14.655Z,16.84
2023-05-22T23:53:41.760Z,16.85
2023-05-22T23:56:08.951Z,16.89
2023-05-22T23:58:35.666Z,16.82
